Airfield :
LOGIN :

Register | Disclaimer

   EN    FR    IT 

 










Legend :    VFR   Marginal VFR   IFR   Intensive IFR   Very Intensive IFR
Visi :
Ceiling :
>= 8 km
>= 3000ft
5 to 8 km
1000 to 3000 ft
1500m to 5 km
500 to 1000 ft
800 to 1500m
200 to 500 ft
< 800m
< 200 ft
Symbols :   Thunderstorms  Fog  Heavy snow  Heavy precipitations  Wind > 20 kt
SIGMETs :     Misc.  Thunderstorms  Icing  Turbulence  Mountain Waves  Volcanic Ashes







- Airport Elevation : 915 ft
- IATA code : LUG


LSZA - Lugano

CURRENT METAR :
  • 210520Z VRB02KT 9999 FEW008 SCT042 17/16 Q1012 NOSIG

EXPIRED METARs :
  • 210450Z 36004KT 9999 FEW008 SCT042 16/15 Q1012 NOSIG
  • 210420Z VRB02KT 9999 FEW008 SCT042 17/16 Q1013 NOSIG
  • 210350Z AUTO 02003KT CAVOK 17/16 Q1013
  • 210320Z AUTO 02003KT 350V060 9999 NCD 17/16 Q1013
  • 210250Z AUTO VRB01KT 9999 NSC 18/16 Q1013

TAF TAF LSZA
Valid from the 21 at 03:00 until the 21 at 12:00 UTC


210225Z 2103/2112 VRB03KT 9999 BKN060
TEMPO 2103/2112 SHRA SCT050TCU
PROB30
TEMPO 2103/2112 4000 TSRA SCT040CB
ATIS : +41 22 417 40 88
No reported NOTAMs for that airfield.



MET'MAP, your aeronautical weather chart ! - Copyright ORBIFLY December 2007 - Disclaimer

ORBIFLY MET'MAP TEAM :

Programming & Development : Alexandra Zaïnal
Concept & Development : Baudouin d'Aumeries
Co-Development & Prog : Marc-Olivier Méhu
Technical & hardware support : Manuel Goepfert

Contact : metmap@orbifly.com




SOURCES & CREDITS :

   NOAA